Time;durP1;ratioP1;P1;durP2;ratioP2;P2;SDS_P1;SDS_P2;PMS_P1;PMS_P2;Temp;Humidity;BMP_temperature;BMP_pressure;BME280_temperature;BME280_humidity;BME280_pressure;Samples;Min_cycle;Max_cycle;Signal;HPM_P1;HPM_P2
2022/06/01 00:01:07;;;;;;;14.73;8.00;;;;;;;18.14;100.00;100949.81;1769130;80;21145;-88
2022/06/01 00:03:38;;;;;;;9.50;7.12;;;;;;;18.12;100.00;100946.50;1771238;80;20998;-90
2022/06/01 00:06:07;;;;;;;12.50;7.87;;;;;;;18.07;100.00;100944.80;1764445;80;21242;-88
2022/06/01 00:08:35;;;;;;;10.05;7.80;;;;;;;18.04;100.00;100954.36;1766422;80;21026;-87
2022/06/01 00:11:03;;;;;;;11.35;8.23;;;;;;;18.02;100.00;100947.94;1765181;80;21081;-88
2022/06/01 00:13:30;;;;;;;11.25;8.13;;;;;;;18.03;100.00;100939.52;1765463;80;21488;-87
2022/06/01 00:15:58;;;;;;;12.53;8.20;;;;;;;18.02;100.00;100943.98;1770190;80;21117;-88
2022/06/01 00:18:25;;;;;;;11.15;7.22;;;;;;;17.98;100.00;100937.36;1770107;80;21867;-88
2022/06/01 00:20:53;;;;;;;11.15;7.25;;;;;;;17.85;100.00;100937.74;1764323;80;21105;-89
2022/06/01 00:23:21;;;;;;;9.75;7.33;;;;;;;17.77;100.00;100933.73;1749104;80;21033;-88
2022/06/01 00:25:48;;;;;;;9.15;7.12;;;;;;;17.72;100.00;100936.83;1767065;80;21078;-90
2022/06/01 00:28:16;;;;;;;9.13;7.00;;;;;;;17.71;100.00;100937.00;1769894;80;22035;-85
2022/06/01 00:30:43;;;;;;;11.80;7.30;;;;;;;17.70;100.00;100937.50;1764726;80;21249;-88
2022/06/01 00:33:10;;;;;;;12.37;6.97;;;;;;;17.69;100.00;100933.69;1774401;80;21142;-88
2022/06/01 00:35:38;;;;;;;9.18;6.53;;;;;;;17.66;100.00;100937.45;1773865;80;21639;-88
2022/06/01 00:38:05;;;;;;;11.95;7.15;;;;;;;17.63;100.00;100924.59;1770096;80;21069;-89
2022/06/01 00:40:33;;;;;;;11.35;6.80;;;;;;;17.62;100.00;100918.51;1765803;80;21037;-89
2022/06/01 00:43:06;;;;;;;10.25;7.12;;;;;;;17.60;100.00;100913.88;1763689;80;21227;-90
2022/06/01 00:45:33;;;;;;;8.55;7.12;;;;;;;17.62;100.00;100921.14;1768509;80;21030;-89
2022/06/01 00:48:01;;;;;;;10.45;7.45;;;;;;;17.59;100.00;100920.12;1765803;80;21551;-86
2022/06/01 00:50:36;;;;;;;10.25;7.97;;;;;;;17.58;100.00;100932.13;1765947;80;21042;-88
2022/06/01 00:53:20;;;;;;;10.78;7.97;;;;;;;17.52;100.00;100923.54;1766861;80;21034;-88
2022/06/01 00:55:52;;;;;;;12.65;7.60;;;;;;;17.45;100.00;100924.63;1771045;80;21078;-89
2022/06/01 00:58:27;;;;;;;12.45;7.55;;;;;;;17.41;100.00;100921.48;1753328;80;21034;-89
2022/06/01 01:00:56;;;;;;;12.60;7.60;;;;;;;17.35;100.00;100918.97;1768672;80;21038;-89
2022/06/01 01:03:33;;;;;;;14.53;7.80;;;;;;;17.29;100.00;100914.81;1761646;80;21073;-90
2022/06/01 01:06:30;;;;;;;12.75;7.78;;;;;;;17.24;100.00;100906.06;1765437;80;21681;-91
2022/06/01 01:08:59;;;;;;;11.20;8.55;;;;;;;17.24;100.00;100909.16;1758751;80;21239;-89
2022/06/01 01:11:43;;;;;;;15.78;8.73;;;;;;;17.20;100.00;100911.27;1727423;80;21222;-90
2022/06/01 01:14:14;;;;;;;11.20;8.05;;;;;;;17.15;100.00;100908.28;1757836;80;21063;-88
2022/06/01 01:16:41;;;;;;;14.98;9.38;;;;;;;17.09;100.00;100901.00;1768155;80;21029;-88
2022/06/01 01:19:16;;;;;;;13.95;8.38;;;;;;;17.03;100.00;100902.42;1758490;80;21006;-87
2022/06/01 01:22:08;;;;;;;13.28;7.65;;;;;;;16.98;100.00;100913.39;1756259;80;21749;-87
2022/06/01 01:25:28;;;;;;;10.65;8.20;;;;;;;16.98;100.00;100919.16;1769856;80;21551;-89
2022/06/01 01:27:59;;;;;;;10.55;7.33;;;;;;;17.01;100.00;100901.27;1716240;83;21564;-87
2022/06/01 01:30:39;;;;;;;10.82;7.50;;;;;;;17.00;100.00;100900.92;1768416;80;21517;-87
2022/06/01 01:33:20;;;;;;;12.33;8.18;;;;;;;17.02;100.00;100911.29;1748406;80;21085;-88
2022/06/01 01:35:54;;;;;;;10.58;8.33;;;;;;;17.02;100.00;100901.58;1748077;80;21156;-85
2022/06/01 01:38:46;;;;;;;15.38;8.40;;;;;;;17.04;100.00;100894.87;1752129;80;21607;-87
2022/06/01 01:41:20;;;;;;;15.80;9.45;;;;;;;17.03;100.00;100896.66;1751759;80;21046;-88
2022/06/01 01:44:25;;;;;;;12.82;9.13;;;;;;;17.00;100.00;100897.45;1748219;80;21007;-88
2022/06/01 01:46:54;;;;;;;9.88;8.08;;;;;;;16.94;100.00;100900.69;1727060;80;20991;-87
2022/06/01 01:49:26;;;;;;;10.85;8.10;;;;;;;16.87;100.00;100903.05;1752887;80;21086;-87
2022/06/01 01:51:58;;;;;;;10.72;8.50;;;;;;;16.87;100.00;100904.37;1769612;80;20983;-88
2022/06/01 01:55:07;;;;;;;11.05;7.62;;;;;;;16.87;100.00;100909.62;1761474;80;21070;-89
2022/06/01 01:57:50;;;;;;;11.43;8.15;;;;;;;16.87;100.00;100910.94;1764694;79;21025;-86
2022/06/01 02:00:21;;;;;;;10.43;8.20;;;;;;;16.85;100.00;100908.97;1749933;80;21697;-87
2022/06/01 02:03:00;;;;;;;12.55;8.70;;;;;;;16.78;100.00;100917.12;1751456;80;21811;-88
2022/06/01 02:08:54;;;;;;;14.38;9.35;;;;;;;16.71;100.00;100908.48;1756530;79;21143;-90
2022/06/01 02:14:53;;;;;;;13.45;9.10;;;;;;;16.62;100.00;100901.52;1728324;81;22383;-87
2022/06/01 02:17:29;;;;;;;11.70;8.83;;;;;;;16.60;100.00;100907.41;1746519;80;21092;-86
2022/06/01 02:20:10;;;;;;;11.12;8.50;;;;;;;16.61;100.00;100906.91;1744370;80;21038;-90
2022/06/01 02:22:40;;;;;;;13.98;7.97;;;;;;;16.66;100.00;100912.06;1746053;80;21045;-88
2022/06/01 02:25:10;;;;;;;12.63;7.60;;;;;;;16.74;100.00;100910.48;1750530;79;21061;-87
2022/06/01 02:27:38;;;;;;;8.78;7.03;;;;;;;16.77;100.00;100906.27;1728277;79;21528;-87
2022/06/01 02:30:19;;;;;;;12.15;7.95;;;;;;;16.77;100.00;100912.84;1763322;79;21908;-90
2022/06/01 02:32:48;;;;;;;11.60;7.28;;;;;;;16.81;100.00;100916.80;1751155;80;21496;-87
2022/06/01 02:35:20;;;;;;;12.95;7.15;;;;;;;16.86;100.00;100917.20;1763299;78;20998;-88
2022/06/01 02:37:54;;;;;;;9.03;6.97;;;;;;;16.91;100.00;100917.58;1758750;78;21086;-86
2022/06/01 02:40:25;;;;;;;10.70;7.72;;;;;;;16.93;100.00;100920.08;1748068;80;21082;-85
2022/06/01 02:42:54;;;;;;;10.40;7.80;;;;;;;16.92;100.00;100919.23;1765935;79;21100;-88
2022/06/01 02:45:25;;;;;;;11.60;7.10;;;;;;;16.93;100.00;100920.92;1752169;80;21046;-88
2022/06/01 02:47:55;;;;;;;;;;;;;;;16.96;100.00;100917.16;1761192;80;22151;-87
2022/06/01 02:50:26;;;;;;;12.78;6.85;;;;;;;17.00;100.00;100921.13;1749177;80;20173;-87
2022/06/01 02:52:54;;;;;;;9.88;6.78;;;;;;;17.05;100.00;100920.67;1760541;80;21088;-88
2022/06/01 02:55:22;;;;;;;12.35;7.50;;;;;;;17.11;100.00;100927.96;1704682;82;21098;-87
2022/06/01 02:57:51;;;;;;;12.88;7.20;;;;;;;17.17;100.00;100936.09;1754253;80;21014;-87
2022/06/01 03:00:26;;;;;;;7.62;6.47;;;;;;;17.22;100.00;100931.69;1756716;80;20971;-88
2022/06/01 03:02:57;;;;;;;13.03;7.33;;;;;;;17.28;100.00;100919.73;1725780;82;21089;-87
2022/06/01 03:05:33;;;;;;;10.88;6.53;;;;;;;17.35;100.00;100934.75;1732739;81;21478;-85
2022/06/01 03:08:02;;;;;;;8.98;6.05;;;;;;;17.41;100.00;100928.56;1759030;80;21289;-88
2022/06/01 03:10:30;;;;;;;8.53;6.33;;;;;;;17.46;100.00;100931.08;1699937;83;21689;-88
2022/06/01 03:12:58;;;;;;;9.63;6.12;;;;;;;17.55;100.00;100937.70;1757486;79;21619;-87
2022/06/01 03:15:26;;;;;;;9.63;6.50;;;;;;;17.61;100.00;100931.33;1747291;79;21109;-87
2022/06/01 03:17:54;;;;;;;7.70;6.33;;;;;;;17.75;100.00;100934.38;1743994;80;21037;-88
2022/06/01 03:20:26;;;;;;;10.00;7.05;;;;;;;17.85;100.00;100931.16;1748558;80;21751;-89
2022/06/01 03:22:56;;;;;;;14.93;7.60;;;;;;;17.95;100.00;100925.77;1754903;80;21039;-89
2022/06/01 03:25:24;;;;;;;12.55;6.58;;;;;;;18.02;100.00;100924.22;1755285;80;21610;-90
2022/06/01 03:27:57;;;;;;;11.38;6.75;;;;;;;18.10;100.00;100927.38;1750497;79;20998;-88
2022/06/01 03:30:28;;;;;;;12.20;5.72;;;;;;;18.18;100.00;100924.78;1734100;80;21061;-88
2022/06/01 03:32:57;;;;;;;9.30;6.67;;;;;;;18.27;100.00;100919.88;1754771;80;21107;-89
2022/06/01 03:35:29;;;;;;;11.88;6.53;;;;;;;18.38;100.00;100924.03;1749263;80;21539;-87
2022/06/01 03:37:57;;;;;;;10.88;6.42;;;;;;;18.46;100.00;100923.25;1754040;79;21065;-87
2022/06/01 03:40:28;;;;;;;12.70;6.20;;;;;;;18.52;100.00;100922.61;1752640;80;21031;-87
2022/06/01 03:42:56;;;;;;;12.95;6.72;;;;;;;18.57;100.00;100925.58;1761311;78;21622;-87
2022/06/01 03:48:10;;;;;;;8.13;6.28;;;;;;;18.66;100.00;100926.92;1740674;80;21096;-89
2022/06/01 03:50:38;;;;;;;10.75;6.37;;;;;;;18.75;100.00;100925.95;1757858;79;21085;-88
2022/06/01 03:53:05;;;;;;;12.30;6.28;;;;;;;18.85;100.00;100924.48;1774706;79;22452;-90
2022/06/01 03:55:34;;;;;;;10.93;6.40;;;;;;;18.94;100.00;100922.73;1768132;80;21029;-88
2022/06/01 03:58:01;;;;;;;10.65;5.95;;;;;;;19.02;100.00;100928.02;1768063;79;21194;-89
2022/06/01 04:00:29;;;;;;;9.98;6.10;;;;;;;19.08;100.00;100922.89;1765229;79;21081;-89
2022/06/01 04:02:56;;;;;;;11.80;6.30;;;;;;;19.17;100.00;100922.42;1764276;80;21042;-89
2022/06/01 04:05:25;;;;;;;8.58;5.70;;;;;;;19.31;100.00;100921.42;1753187;80;21673;-88
2022/06/01 04:07:53;;;;;;;13.88;6.12;;;;;;;19.44;100.00;100919.09;1755604;80;21022;-88
2022/06/01 04:10:21;;;;;;;11.12;6.87;;;;;;;19.58;100.00;100915.47;1758159;80;21603;-88
2022/06/01 04:12:49;;;;;;;12.60;7.37;;;;;;;19.68;100.00;100916.09;1768748;80;21070;-87
2022/06/01 04:15:17;;;;;;;16.73;9.70;;;;;;;19.77;100.00;100916.41;1735350;80;21089;-88
2022/06/01 04:17:46;;;;;;;17.15;10.28;;;;;;;19.90;100.00;100916.42;1751143;80;21029;-89
2022/06/01 04:20:13;;;;;;;13.22;8.88;;;;;;;19.98;100.00;100907.95;1749163;80;21070;-88
2022/06/01 04:22:43;;;;;;;17.85;11.40;;;;;;;20.08;100.00;100905.11;1759826;80;21445;-88
2022/06/01 04:25:14;;;;;;;16.12;9.90;;;;;;;20.17;100.00;100904.09;1755605;80;21080;-89
2022/06/01 04:27:44;;;;;;;19.82;10.43;;;;;;;20.29;100.00;100897.92;1741959;80;21109;-90
2022/06/01 04:30:14;;;;;;;17.95;10.15;;;;;;;20.41;100.00;100898.87;1760662;79;21101;-92
2022/06/01 04:32:45;;;;;;;18.07;10.70;;;;;;;20.52;100.00;100897.64;1759390;80;21046;-89
2022/06/01 04:35:14;;;;;;;32.03;12.03;;;;;;;20.66;100.00;100898.22;1764988;80;21658;-89
2022/06/01 04:37:41;;;;;;;13.78;7.37;;;;;;;20.79;100.00;100901.13;1760302;80;21034;-88
2022/06/01 04:40:10;;;;;;;15.13;7.45;;;;;;;20.90;100.00;100900.41;1768895;80;21491;-88
2022/06/01 04:42:39;;;;;;;18.77;13.15;;;;;;;21.00;100.00;100906.29;1757906;79;21096;-90
2022/06/01 04:45:10;;;;;;;13.50;8.33;;;;;;;21.11;100.00;100904.53;1758801;80;21026;-88
2022/06/01 04:47:37;;;;;;;11.88;7.45;;;;;;;21.23;100.00;100905.44;1752603;80;21114;-90
2022/06/01 04:50:07;;;;;;;36.05;10.58;;;;;;;21.36;100.00;100907.48;1753340;80;21085;-90
2022/06/01 04:52:35;;;;;;;12.28;8.03;;;;;;;21.49;100.00;100906.88;1743804;79;21587;-90
2022/06/01 04:55:07;;;;;;;31.37;9.83;;;;;;;21.56;100.00;100907.80;1739475;80;21077;-89
2022/06/01 04:57:34;;;;;;;35.52;13.65;;;;;;;21.62;100.00;100907.09;1763212;80;21117;-90
2022/06/01 05:00:01;;;;;;;18.23;8.68;;;;;;;21.67;100.00;100903.39;1758394;80;21179;-88
2022/06/01 05:02:29;;;;;;;20.05;8.90;;;;;;;21.73;100.00;100905.33;1752222;80;21543;-91
2022/06/01 05:04:56;;;;;;;21.17;9.43;;;;;;;21.84;100.00;100912.00;1710482;83;20963;-91
2022/06/01 05:07:24;;;;;;;17.65;9.15;;;;;;;21.92;100.00;100909.74;1743992;80;21062;-90
2022/06/01 05:09:52;;;;;;;13.22;7.40;;;;;;;22.04;100.00;100920.71;1727751;80;21046;-91
2022/06/01 05:12:21;;;;;;;11.35;7.03;;;;;;;22.16;100.00;100913.11;1726182;81;21166;-90
2022/06/01 05:14:48;;;;;;;11.57;7.17;;;;;;;22.29;100.00;100919.92;1717038;81;22310;-91
2022/06/01 05:17:15;;;;;;;11.10;6.70;;;;;;;22.37;100.00;100914.52;1738895;81;21090;-92
2022/06/01 05:19:43;;;;;;;14.80;8.80;;;;;;;22.44;100.00;100914.60;1742585;80;21049;-90
2022/06/01 05:22:12;;;;;;;14.28;8.10;;;;;;;22.53;100.00;100918.79;1747228;80;21035;-92
2022/06/01 05:24:40;;;;;;;14.60;8.40;;;;;;;22.61;100.00;100921.84;1759674;80;21249;-90
2022/06/01 05:27:08;;;;;;;13.43;8.48;;;;;;;22.68;100.00;100919.25;1736188;80;21010;-89
2022/06/01 05:29:36;;;;;;;16.60;8.98;;;;;;;22.78;100.00;100923.75;1752793;79;21191;-92
2022/06/01 05:32:05;;;;;;;14.87;8.35;;;;;;;22.89;100.00;100917.63;1738967;80;21224;-95
2022/06/01 05:34:32;;;;;;;11.75;8.08;;;;;;;23.02;100.00;100923.57;1731902;80;21078;-95
2022/06/01 05:36:59;;;;;;;14.38;8.25;;;;;;;23.14;100.00;100921.55;1734052;80;21243;-94
2022/06/01 05:39:28;;;;;;;17.20;8.43;;;;;;;23.26;100.00;100923.70;1730751;80;21051;-94
2022/06/01 05:41:56;;;;;;;14.78;8.45;;;;;;;23.40;100.00;100917.98;1725459;80;22266;-96
2022/06/01 05:44:23;;;;;;;13.28;8.60;;;;;;;23.53;100.00;100918.59;1756670;80;21507;-95
2022/06/01 05:46:56;;;;;;;11.85;7.60;;;;;;;23.62;100.00;100918.23;1762704;80;21042;-95
2022/06/01 05:49:24;;;;;;;16.67;8.08;;;;;;;23.69;100.00;100921.44;1738773;79;21575;-93
2022/06/01 05:51:51;;;;;;;12.33;8.05;;;;;;;23.66;100.00;100923.98;1737616;80;21177;-96
2022/06/01 05:54:19;;;;;;;13.90;7.25;;;;;;;23.66;100.00;100926.64;1751347;80;21086;-96
2022/06/01 05:56:46;;;;;;;15.85;8.30;;;;;;;23.69;100.00;100923.61;1733971;80;21066;-95
2022/06/01 05:59:15;;;;;;;12.75;7.87;;;;;;;23.74;100.00;100925.16;1695537;82;21089;-95
2022/06/01 06:01:44;;;;;;;12.13;7.30;;;;;;;23.79;100.00;100921.92;1749634;79;21139;-96
2022/06/01 06:04:12;;;;;;;14.83;7.95;;;;;;;23.89;100.00;100926.88;1728086;80;21547;-95
2022/06/01 06:06:39;;;;;;;15.00;7.97;;;;;;;24.01;100.00;100924.52;1756312;80;21077;-96
2022/06/01 06:09:09;;;;;;;13.43;8.35;;;;;;;24.06;100.00;100921.58;1757736;80;21039;-95
2022/06/01 06:11:39;;;;;;;13.68;8.53;;;;;;;24.11;100.00;100927.64;1701644;80;21224;-93
2022/06/01 06:14:07;;;;;;;16.25;8.08;;;;;;;24.17;100.00;100923.38;1640415;83;21178;-94
2022/06/01 06:16:43;;;;;;;13.45;7.60;;;;;;;24.29;100.00;100920.97;1694706;81;21117;-96
2022/06/01 06:19:09;;;;;;;22.02;8.18;;;;;;;24.41;100.00;100924.68;1712020;81;21180;-95
2022/06/01 06:21:38;;;;;;;14.78;8.05;;;;;;;24.55;100.00;100914.90;1704196;81;21063;-94
2022/06/01 06:24:14;;;;;;;13.72;7.90;;;;;;;24.67;100.00;100913.83;1706455;82;21027;-96
2022/06/01 06:26:43;;;;;;;13.60;8.08;;;;;;;24.75;100.00;100910.17;1720427;82;21578;-94
2022/06/01 06:29:14;;;;;;;15.83;7.55;;;;;;;24.83;100.00;100913.45;1720839;82;21140;-96
2022/06/01 06:31:42;;;;;;;19.60;8.00;;;;;;;24.89;100.00;100911.83;1727547;82;21026;-96
2022/06/01 06:34:09;;;;;;;17.60;8.45;;;;;;;24.91;100.00;100908.95;1738860;82;20966;-96
2022/06/01 06:36:38;;;;;;;13.48;7.83;;;;;;;24.95;100.00;100911.53;1699077;82;21121;-96
2022/06/01 06:39:04;;;;;;;12.10;7.90;;;;;;;25.02;100.00;100905.69;1697588;82;22033;-94
2022/06/01 06:41:32;;;;;;;16.30;8.10;;;;;;;25.07;100.00;100900.56;1696398;81;20987;-94
2022/06/01 06:44:18;;;;;;;15.85;9.05;;;;;;;25.11;100.00;100894.31;1761006;77;20939;31
2022/06/01 06:46:47;;;;;;;15.43;9.28;;;;;;;25.19;100.00;100895.44;1704396;78;21338;-93
2022/06/01 06:49:14;;;;;;;12.23;7.83;;;;;;;25.33;100.00;100902.91;1681322;79;21132;-90
2022/06/01 06:51:42;;;;;;;14.00;7.50;;;;;;;25.41;100.00;100890.73;1662522;80;21140;-93
2022/06/01 06:54:52;;;;;;;10.90;7.78;;;;;;;25.48;100.00;100892.04;1662224;81;21124;31
2022/06/01 06:59:54;;;;;;;15.28;7.97;;;;;;;25.51;100.00;100892.47;1729464;78;20958;-94
2022/06/01 07:02:31;;;;;;;17.75;8.53;;;;;;;25.57;100.00;100884.66;1728544;77;22282;31
2022/06/01 07:12:00;;;;;;;16.70;7.80;;;;;;;25.90;100.00;100883.75;1740436;77;21156;31
2022/06/01 07:14:31;;;;;;;19.12;8.20;;;;;;;26.01;100.00;100879.59;1721396;77;20966;-93
2022/06/01 07:29:39;;;;;;;16.87;8.00;;;;;;;26.70;100.00;100883.34;1752862;77;21003;-91
2022/06/01 07:43:06;;;;;;;10.68;7.12;;;;;;;27.24;100.00;100878.39;1717581;77;21022;-94
2022/06/01 07:49:51;;;;;;;12.85;6.83;;;;;;;27.33;100.00;100877.61;1734960;77;21050;-93
2022/06/01 07:52:19;;;;;;;12.73;7.58;;;;;;;27.43;100.00;100880.33;1734863;77;21085;-96
2022/06/01 07:54:54;;;;;;;14.73;7.47;;;;;;;27.52;100.00;100880.34;1709720;79;21402;-95
2022/06/01 07:57:41;;;;;;;16.25;7.62;;;;;;;27.64;100.00;100873.73;1717769;77;22369;31
2022/06/01 08:04:21;;;;;;;15.35;7.28;;;;;;;27.85;100.00;100877.78;1697951;78;21114;-93
2022/06/01 08:06:48;;;;;;;18.27;7.55;;;;;;;27.96;100.00;100877.58;1686215;82;21124;-94
2022/06/01 08:09:16;;;;;;;15.50;7.50;;;;;;;28.02;100.00;100874.79;1719127;81;21604;-94
2022/06/01 08:14:33;;;;;;;11.93;6.90;;;;;;;28.21;100.00;100874.80;1710358;81;21031;-95
2022/06/01 08:16:59;;;;;;;12.25;6.62;;;;;;;28.30;100.00;100874.77;1710285;81;21224;-95
2022/06/01 08:19:26;;;;;;;12.82;7.00;;;;;;;28.39;100.00;100875.80;1775208;78;21072;-96
2022/06/01 08:21:54;;;;;;;12.10;7.00;;;;;;;28.48;100.00;100869.08;1784550;78;21185;-96
2022/06/01 08:24:22;;;;;;;14.50;7.58;;;;;;;28.53;100.00;100865.17;1787670;78;21056;-94
2022/06/01 08:26:50;;;;;;;13.75;6.60;;;;;;;28.48;100.00;100861.84;1784602;78;21063;-95
2022/06/01 08:29:18;;;;;;;15.30;7.15;;;;;;;28.47;100.00;100861.55;1787905;78;21081;-94
2022/06/01 08:31:45;;;;;;;26.40;7.87;;;;;;;28.47;100.00;100864.22;1770726;78;21041;-95
2022/06/01 08:34:16;;;;;;;14.33;7.20;;;;;;;28.51;100.00;100861.91;1787941;78;21096;-94
2022/06/01 08:36:43;;;;;;;11.48;6.85;;;;;;;28.64;100.00;100863.03;1792638;78;21061;-96
2022/06/01 08:39:10;;;;;;;14.23;6.95;;;;;;;28.77;100.00;100862.56;1778579;78;21018;-95
2022/06/01 08:41:40;;;;;;;10.40;6.42;;;;;;;28.92;100.00;100858.91;1786813;79;21005;-95
2022/06/01 08:44:30;;;;;;;14.38;7.80;;;;;;;29.05;96.50;100856.53;1784698;78;21132;-94
2022/06/01 08:47:05;;;;;;;10.45;6.92;;;;;;;29.10;100.00;100854.49;1786008;78;21202;-93
2022/06/01 08:49:35;;;;;;;15.72;7.35;;;;;;;29.12;100.00;100854.55;1712961;80;21077;-94
2022/06/01 08:52:04;;;;;;;13.25;7.87;;;;;;;29.15;100.00;100855.14;1736859;79;21555;-93
2022/06/01 08:54:32;;;;;;;10.35;7.97;;;;;;;29.21;100.00;100859.55;1700772;82;21830;-92
2022/06/01 08:57:11;;;;;;;13.53;7.97;;;;;;;29.33;100.00;100866.28;1740884;80;21118;-92
2022/06/01 09:00:02;;;;;;;11.33;8.10;;;;;;;29.44;99.71;100864.13;1709682;81;21165;-92
2022/06/01 09:05:40;;;;;;;;;;;;;;;29.70;100.00;100864.13;1750434;79;21087;-91
2022/06/01 09:08:45;;;;;;;14.15;8.43;;;;;;;29.78;99.70;100867.48;1771597;79;20131;-92
2022/06/01 09:11:37;;;;;;;11.78;7.35;;;;;;;29.69;100.00;100862.48;1732381;79;21464;-96
2022/06/01 09:14:18;;;;;;;12.65;7.53;;;;;;;29.68;100.00;100861.39;1727899;80;21248;-94
2022/06/01 09:16:49;;;;;;;11.03;7.05;;;;;;;29.79;94.41;100861.06;1771997;79;21067;-96
2022/06/01 09:19:25;;;;;;;12.95;7.20;;;;;;;29.92;90.08;100863.49;1761722;80;21559;-96
2022/06/01 09:24:48;;;;;;;12.37;7.00;;;;;;;30.08;90.64;100856.55;1745644;80;20931;-96
2022/06/01 09:27:17;;;;;;;15.65;7.28;;;;;;;30.13;91.88;100851.78;1739362;79;21150;-96
2022/06/01 09:29:49;;;;;;;18.27;7.12;;;;;;;30.11;87.54;100849.89;1730606;79;21061;-94
2022/06/01 09:32:34;;;;;;;11.48;6.72;;;;;;;30.09;89.24;100850.11;1751355;79;21025;-96
2022/06/01 09:35:10;;;;;;;11.08;6.70;;;;;;;30.09;88.22;100862.19;1697497;82;21085;-94
2022/06/01 09:37:49;;;;;;;15.38;7.15;;;;;;;30.11;84.39;100853.38;1720065;81;21600;-94
2022/06/01 09:40:25;;;;;;;12.00;7.05;;;;;;;30.26;82.30;100852.02;1695369;82;21504;-96
2022/06/01 09:42:59;;;;;;;14.50;7.00;;;;;;;30.36;79.76;100854.89;1729511;81;21113;-96
2022/06/01 09:45:33;;;;;;;14.07;6.95;;;;;;;30.37;81.28;100853.29;1681591;80;21067;-96
2022/06/01 09:48:22;;;;;;;9.63;7.28;;;;;;;30.49;85.59;100854.56;1698206;82;21055;-93
2022/06/01 09:51:05;;;;;;;10.23;6.58;;;;;;;30.64;82.64;100850.02;1695477;82;21021;-96
2022/06/01 09:53:51;;;;;;;10.20;6.90;;;;;;;30.83;82.87;100855.15;1684322;82;21131;-93
2022/06/01 09:56:32;;;;;;;13.43;6.80;;;;;;;30.93;75.89;100850.45;1712831;82;21019;-96
2022/06/01 10:07:29;;;;;;;12.28;6.60;;;;;;;31.11;71.38;100855.59;1679215;83;22082;-94
2022/06/01 10:10:04;;;;;;;10.95;6.87;;;;;;;31.27;71.53;100853.11;1703193;81;21011;-96
2022/06/01 10:12:50;;;;;;;11.22;6.97;;;;;;;31.39;71.21;100859.17;1723773;81;21091;-93
2022/06/01 10:15:40;;;;;;;10.88;6.40;;;;;;;31.50;65.60;100861.46;1712801;81;21084;-93
2022/06/01 10:18:24;;;;;;;10.58;6.92;;;;;;;31.50;74.21;100857.97;1692935;82;21095;-94
2022/06/01 10:21:03;;;;;;;8.48;6.05;;;;;;;31.57;68.26;100852.67;1751417;79;21162;-95
2022/06/01 10:23:42;;;;;;;11.45;6.72;;;;;;;31.66;66.20;100856.27;1654348;83;21127;-95
2022/06/01 10:26:24;;;;;;;7.55;5.62;;;;;;;31.76;62.62;100861.30;1715291;80;21089;-95
2022/06/01 10:29:13;;;;;;;13.90;7.20;;;;;;;31.87;65.53;100860.87;1727945;81;21046;-94
2022/06/01 10:32:03;;;;;;;12.93;7.12;;;;;;;31.95;64.37;100854.20;1693903;82;21108;-95
2022/06/01 10:34:49;;;;;;;11.25;6.90;;;;;;;31.97;66.63;100857.47;1693161;81;21038;-92
2022/06/01 10:37:40;;;;;;;15.93;7.12;;;;;;;31.84;67.18;100857.87;1724404;79;21037;-95
2022/06/01 10:40:28;;;;;;;13.45;6.37;;;;;;;31.71;68.53;100854.48;1717576;81;21037;-94
2022/06/01 10:43:19;;;;;;;10.80;6.42;;;;;;;31.76;64.37;100858.60;1738432;80;21081;-96
2022/06/01 10:45:59;;;;;;;18.92;7.30;;;;;;;31.78;69.89;100855.65;1667199;83;21099;-96
2022/06/01 10:48:44;;;;;;;14.60;6.87;;;;;;;31.84;63.39;100856.52;1669005;83;21232;-96
2022/06/01 10:51:26;;;;;;;10.40;6.42;;;;;;;31.85;67.14;100848.19;1686900;81;21098;-96
2022/06/01 10:54:08;;;;;;;9.98;6.12;;;;;;;31.98;84.56;100856.41;1693089;83;21583;-96
2022/06/01 10:56:35;;;;;;;22.67;7.67;;;;;;;32.05;90.82;100852.17;1713842;81;21063;-96
2022/06/01 10:59:08;;;;;;;14.58;7.33;;;;;;;32.05;73.62;100852.97;1723283;82;21071;-95
2022/06/01 11:02:02;;;;;;;14.50;7.20;;;;;;;31.95;75.80;100850.17;1718454;81;21131;-92
2022/06/01 11:05:18;;;;;;;10.35;6.83;;;;;;;31.90;78.22;100854.16;1696390;81;21244;-96
2022/06/01 11:07:57;;;;;;;13.53;7.55;;;;;;;31.84;91.21;100843.06;1723548;81;21112;-87
2022/06/01 11:10:32;;;;;;;12.18;7.03;;;;;;;31.83;88.11;100848.16;1723411;81;21244;-86
2022/06/01 11:13:14;;;;;;;17.55;7.28;;;;;;;31.80;84.57;100852.18;1725307;81;21143;-89
2022/06/01 11:16:25;;;;;;;15.60;7.17;;;;;;;31.83;85.18;100857.04;1714631;82;21827;-85
2022/06/01 11:18:51;;;;;;;12.80;7.42;;;;;;;31.89;97.69;100856.02;1759879;79;22013;-85
2022/06/01 11:21:40;;;;;;;11.35;7.53;;;;;;;31.99;96.19;100852.64;1766702;78;20991;-86
2022/06/01 11:24:38;;;;;;;10.23;6.40;;;;;;;32.09;98.72;100854.08;1749568;80;21774;-86
2022/06/01 11:27:11;;;;;;;13.30;6.87;;;;;;;32.15;95.17;100860.33;1734180;79;21059;-86
2022/06/01 11:30:07;;;;;;;9.10;6.10;;;;;;;32.09;99.62;100860.01;1747380;79;21278;-86
2022/06/01 11:32:52;;;;;;;11.90;7.12;;;;;;;32.07;97.96;100862.13;1736695;81;21092;-88
2022/06/01 11:35:33;;;;;;;11.97;6.95;;;;;;;32.10;99.61;100866.48;1741211;81;21093;-87
2022/06/01 11:38:25;;;;;;;9.85;6.25;;;;;;;32.14;88.18;100867.33;1725567;81;21078;-87
2022/06/01 11:41:15;;;;;;;13.50;6.37;;;;;;;32.14;92.20;100864.64;1735799;81;21057;-86
2022/06/01 11:43:56;;;;;;;8.48;6.50;;;;;;;32.18;97.71;100872.47;1732873;81;21197;-86
2022/06/01 11:46:31;;;;;;;14.90;6.75;;;;;;;32.17;98.80;100863.59;1732290;81;21182;-86
2022/06/01 11:49:03;;;;;;;13.70;6.85;;;;;;;32.14;93.23;100864.64;1720639;81;21057;-86
2022/06/01 11:51:46;;;;;;;12.03;7.30;;;;;;;32.09;88.52;100864.84;1735002;80;21101;-89
2022/06/01 11:54:28;;;;;;;10.05;6.28;;;;;;;32.02;82.66;100870.97;1731152;79;21061;-86
2022/06/01 11:57:03;;;;;;;13.32;6.90;;;;;;;31.97;88.73;100876.31;1721757;80;21755;-87
2022/06/01 11:59:47;;;;;;;10.75;6.35;;;;;;;31.95;83.41;100871.70;1737749;80;21481;-86
2022/06/01 12:02:40;;;;;;;10.85;6.80;;;;;;;31.97;83.77;100872.82;1745400;80;21046;-85
2022/06/01 12:05:12;;;;;;;10.23;6.65;;;;;;;31.99;82.21;100869.31;1752962;79;21136;-85
2022/06/01 12:07:51;;;;;;;13.30;6.72;;;;;;;31.98;88.78;100879.80;1743583;79;21080;-85
2022/06/01 12:10:31;;;;;;;12.43;7.28;;;;;;;32.05;91.11;100872.37;1725206;81;21102;-84
2022/06/01 12:13:24;;;;;;;17.17;7.50;;;;;;;32.17;88.14;100870.87;1707756;82;21179;-87
2022/06/01 12:16:25;;;;;;;11.20;6.65;;;;;;;32.27;71.37;100870.98;1734369;80;21083;-86
2022/06/01 12:19:13;;;;;;;10.43;6.80;;;;;;;32.16;82.78;100870.05;1689398;82;21142;-88
2022/06/01 12:21:54;;;;;;;14.95;8.05;;;;;;;32.08;88.68;100869.98;1732929;79;21140;-88
2022/06/01 12:30:23;;;;;;;9.30;6.67;;;;;;;32.13;95.15;100854.92;1732465;80;21097;-85
2022/06/01 12:35:20;;;;;;;11.93;7.10;;;;;;;32.19;93.20;100852.03;1726855;81;20182;-85
2022/06/01 12:37:54;;;;;;;10.85;6.55;;;;;;;32.21;97.90;100851.23;1727455;80;21171;-85
2022/06/01 12:40:22;;;;;;;11.08;7.72;;;;;;;32.23;98.84;100844.29;1741603;80;21134;-85
2022/06/01 12:42:59;;;;;;;13.75;7.87;;;;;;;32.32;94.12;100840.58;1718069;80;21093;-87
2022/06/01 12:45:36;;;;;;;13.20;6.83;;;;;;;32.32;94.12;100840.58;1689770;80;21096;-85
2022/06/01 12:48:14;;;;;;;12.60;7.50;;;;;;;32.34;83.19;100837.91;1720260;80;21065;-87
2022/06/01 12:50:59;;;;;;;10.20;6.28;;;;;;;32.35;80.71;100832.80;1700435;82;21138;-84
2022/06/01 12:53:48;;;;;;;23.87;6.97;;;;;;;32.30;83.54;100835.46;1709683;82;22121;-87
2022/06/01 12:56:26;;;;;;;9.93;6.15;;;;;;;32.33;80.82;100829.54;1696768;83;21692;-87
2022/06/01 12:58:54;;;;;;;17.02;6.87;;;;;;;32.35;73.91;100823.92;1680537;83;21034;-85
2022/06/01 13:01:27;;;;;;;14.00;6.83;;;;;;;32.34;71.26;100817.70;1736278;79;21065;-85